Time;durP1;ratioP1;P1;durP2;ratioP2;P2;SDS_P1;SDS_P2;PMS_P1;PMS_P2;Temp;Humidity;BMP_temperature;BMP_pressure;BME280_temperature;BME280_humidity;BME280_pressure;Samples;Min_cycle;Max_cycle;Signal;HPM_P1;HPM_P2
2023/03/11 00:02:08;;;;;;;;;;;;;;;0.81;82.10;95335.53;5031149;28;19955;-73
2023/03/11 00:04:35;;;;;;;;;;;;;;;0.81;81.03;95347.66;5030611;28;19958;-73
2023/03/11 00:07:01;;;;;;;;;;;;;;;0.81;81.95;95357.97;5030728;28;20400;-73
2023/03/11 00:09:26;;;;;;;;;;;;;;;0.76;81.39;95340.47;5030503;28;19954;-74
2023/03/11 00:11:52;;;;;;;;;;;;;;;0.76;81.05;95335.31;5030440;28;19940;-73
2023/03/11 00:14:18;;;;;;;;;;;;;;;0.77;81.67;95351.56;5030611;28;19952;-73
2023/03/11 00:16:44;;;;;;;;;;;;;;;0.78;82.59;95366.09;5030608;28;20424;-73
2023/03/11 00:19:10;;;;;;;;;;;;;;;0.78;82.07;95358.34;5030745;28;19957;-73
2023/03/11 00:21:36;;;;;;;;;;;;;;;0.79;82.06;95359.94;5029819;28;20001;-73
2023/03/11 00:24:02;;;;;;;;;;;;;;;0.83;81.92;95361.16;5030253;28;19954;-73
2023/03/11 00:26:28;;;;;;;;;;;;;;;0.87;83.31;95366.78;5030542;28;19952;-73
2023/03/11 00:28:54;;;;;;;;;;;;;;;0.89;82.74;95365.59;5030336;28;19953;-73
2023/03/11 00:31:20;;;;;;;;;;;;;;;0.92;83.02;95354.09;5030500;28;19948;-73
2023/03/11 00:33:46;;;;;;;;;;;;;;;0.92;82.94;95364.44;5030536;28;19948;-73
2023/03/11 00:36:20;;;;;;;;;;;;;;;0.92;81.83;95354.91;5030196;28;20046;-73
2023/03/11 00:38:46;;;;;;;;;;;;;;;0.93;82.41;95356.50;5030293;28;19962;-73
2023/03/11 00:41:12;;;;;;;;;;;;;;;0.96;82.34;95350.97;5030250;28;19963;-73
2023/03/11 00:43:38;;;;;;;;;;;;;;;1.02;82.84;95357.19;5030067;28;19979;-73
2023/03/11 00:46:04;;;;;;;;;;;;;;;1.01;82.95;95351.22;5030341;28;20424;-73
2023/03/11 00:48:30;;;;;;;;;;;;;;;1.01;82.26;95346.06;5030394;28;19945;-73
2023/03/11 00:50:56;;;;;;;;;;;;;;;1.02;81.65;95357.19;5029458;28;19991;-73
2023/03/11 00:53:22;;;;;;;;;;;;;;;1.00;81.85;95351.41;5029910;28;20033;-73
2023/03/11 00:55:48;;;;;;;;;;;;;;;1.00;82.71;95378.00;5046843;28;19998;-73
2023/03/11 00:58:14;;;;;;;;;;;;;;;0.99;82.66;95378.22;5033541;28;20061;-73
2023/03/11 01:00:40;;;;;;;;;;;;;;;0.94;81.58;95372.78;5016099;28;20065;-73
2023/03/11 01:03:06;;;;;;;;;;;;;;;0.93;81.38;95353.13;5015595;28;19950;-73
2023/03/11 01:05:33;;;;;;;;;;;;;;;0.95;81.59;95367.44;5033232;28;19955;-73
2023/03/11 01:07:59;;;;;;;;;;;;;;;0.99;81.56;95360.16;5033227;28;19950;-73
2023/03/11 01:10:26;;;;;;;;;;;;;;;1.02;80.79;95359.75;5033433;28;19983;-73
2023/03/11 01:12:52;;;;;;;;;;;;;;;1.05;81.92;95371.50;5033340;28;19943;-73
2023/03/11 01:15:20;;;;;;;;;;;;;;;1.04;82.19;95375.06;5033291;28;20025;-73
2023/03/11 01:17:46;;;;;;;;;;;;;;;1.04;83.09;95377.66;4999112;28;19957;-73
2023/03/11 01:20:12;;;;;;;;;;;;;;;1.03;82.85;95371.69;5032975;28;20383;-73
2023/03/11 01:22:38;;;;;;;;;;;;;;;1.03;82.34;95369.13;5033001;28;19948;-74
2023/03/11 01:25:04;;;;;;;;;;;;;;;0.99;82.28;95357.56;5015445;28;20041;-73
2023/03/11 01:27:30;;;;;;;;;;;;;;;0.99;82.97;95379.00;5032896;28;19948;-73
2023/03/11 01:29:56;;;;;;;;;;;;;;;0.94;83.10;95380.53;5032987;28;20333;-73
2023/03/11 01:32:22;;;;;;;;;;;;;;;0.92;83.13;95403.13;5033123;28;20310;-73
2023/03/11 01:34:48;;;;;;;;;;;;;;;0.88;83.59;95397.53;5032694;28;20356;-73
2023/03/11 01:37:14;;;;;;;;;;;;;;;0.89;83.53;95399.16;5032824;28;19953;-73
2023/03/11 01:39:39;;;;;;;;;;;;;;;0.89;83.97;95400.94;5032990;28;20429;-73
2023/03/11 01:42:05;;;;;;;;;;;;;;;0.89;83.36;95399.16;5032770;28;20008;-73
2023/03/11 01:44:31;;;;;;;;;;;;;;;0.86;83.64;95386.63;5032256;28;20325;-73
2023/03/11 01:47:01;;;;;;;;;;;;;;;0.84;83.58;95396.34;5032935;28;19970;-73
2023/03/11 01:49:27;;;;;;;;;;;;;;;0.85;84.30;95410.81;5032457;28;19952;-73
2023/03/11 01:51:56;;;;;;;;;;;;;;;0.88;83.43;95399.31;5032909;28;19944;-73
2023/03/11 01:54:27;;;;;;;;;;;;;;;0.87;82.85;95398.53;5033428;28;19947;-73
2023/03/11 01:56:53;;;;;;;;;;;;;;;0.87;82.55;95383.03;5032511;28;19952;-73
2023/03/11 01:59:21;;;;;;;;;;;;;;;0.92;82.82;95388.44;5032707;28;20300;-73
2023/03/11 02:01:56;;;;;;;;;;;;;;;0.93;81.91;95377.16;5032277;28;19973;-73
2023/03/11 02:04:22;;;;;;;;;;;;;;;0.95;80.56;95357.13;5032337;28;19945;-73
2023/03/11 02:06:48;;;;;;;;;;;;;;;0.97;80.07;95349.19;5032091;28;20373;-73
2023/03/11 02:09:14;;;;;;;;;;;;;;;0.93;80.03;95345.38;5032674;28;19972;-74
2023/03/11 02:11:40;;;;;;;;;;;;;;;0.88;79.54;95353.66;4998346;28;20404;-73
2023/03/11 02:14:07;;;;;;;;;;;;;;;0.85;81.05;95364.38;5032298;28;19957;-73
2023/03/11 02:16:33;;;;;;;;;;;;;;;0.84;81.05;95367.94;5032039;28;19947;-73
2023/03/11 02:19:03;;;;;;;;;;;;;;;0.84;80.06;95349.06;5032258;28;19963;-73
2023/03/11 02:21:30;;;;;;;;;;;;;;;0.86;79.71;95354.84;5031970;28;19968;-73
2023/03/11 02:24:01;;;;;;;;;;;;;;;0.83;79.38;95360.38;5032153;28;19951;-73
2023/03/11 02:26:50;;;;;;;;;;;;;;;0.78;77.79;95343.66;5032343;28;20410;-73
2023/03/11 02:29:17;;;;;;;;;;;;;;;0.74;79.71;95350.16;5021475;28;19943;-73
2023/03/11 02:31:44;;;;;;;;;;;;;;;0.74;79.35;95360.50;5032081;28;20419;-73
2023/03/11 02:34:14;;;;;;;;;;;;;;;0.71;78.48;95349.72;5032094;28;19949;-73
2023/03/11 02:36:41;;;;;;;;;;;;;;;0.72;79.00;95361.66;5032233;28;19955;-73
2023/03/11 02:39:08;;;;;;;;;;;;;;;0.72;79.62;95374.56;5031774;28;20287;-73
2023/03/11 02:41:38;;;;;;;;;;;;;;;0.73;77.61;95376.16;5032472;28;19965;-73
2023/03/11 02:44:07;;;;;;;;;;;;;;;0.70;79.01;95373.94;5031664;28;20328;-73
2023/03/11 02:46:34;;;;;;;;;;;;;;;0.66;79.57;95365.75;5032335;28;20317;-73
2023/03/11 02:49:00;;;;;;;;;;;;;;;0.63;79.74;95360.97;5031780;28;20407;-73
2023/03/11 02:51:26;;;;;;;;;;;;;;;0.60;80.54;95374.22;5031600;28;19951;-73
2023/03/11 02:53:56;;;;;;;;;;;;;;;0.57;79.21;95347.03;5031838;28;20418;-73
2023/03/11 02:56:22;;;;;;;;;;;;;;;0.57;78.32;95367.66;5013904;28;19945;-74
2023/03/11 02:58:48;;;;;;;;;;;;;;;0.54;77.56;95362.84;5031634;28;19941;-73
2023/03/11 03:01:14;;;;;;;;;;;;;;;0.53;78.83;95381.91;5031545;28;19960;-73
2023/03/11 03:03:40;;;;;;;;;;;;;;;0.45;77.97;95382.00;5031776;28;19955;-73
2023/03/11 03:06:06;;;;;;;;;;;;;;;0.39;79.83;95398.19;5031331;28;19964;-73
2023/03/11 03:08:31;;;;;;;;;;;;;;;0.38;78.89;95396.59;5031551;28;19949;-74
2023/03/11 03:10:58;;;;;;;;;;;;;;;0.32;79.18;95392.97;5013619;28;20005;-73
2023/03/11 03:13:25;;;;;;;;;;;;;;;0.25;79.09;95386.91;5031502;28;20393;-73
2023/03/11 03:15:51;;;;;;;;;;;;;;;0.26;78.77;95380.00;5031288;28;19964;-73
2023/03/11 03:18:16;;;;;;;;;;;;;;;0.27;79.51;95382.38;5030547;28;19950;-73
2023/03/11 03:20:42;;;;;;;;;;;;;;;0.32;78.56;95367.19;5013667;28;19968;-73
2023/03/11 03:23:09;;;;;;;;;;;;;;;0.34;78.19;95372.16;5031387;28;19952;-73
2023/03/11 03:25:34;;;;;;;;;;;;;;;0.31;78.78;95369.94;5031608;28;19954;-73
2023/03/11 03:28:00;;;;;;;;;;;;;;;0.25;78.68;95375.81;5031380;28;19952;-73
2023/03/11 03:30:28;;;;;;;;;;;;;;;0.18;76.47;95358.47;5031735;28;19951;-73
2023/03/11 03:32:54;;;;;;;;;;;;;;;0.12;77.70;95389.31;5031146;28;19941;-73
2023/03/11 03:35:20;;;;;;;;;;;;;;;0.11;79.62;95419.47;5031002;28;19954;-74
2023/03/11 03:37:46;;;;;;;;;;;;;;;0.08;80.42;95430.13;5013613;28;19949;-73
2023/03/11 03:40:12;;;;;;;;;;;;;;;0.08;81.37;95448.16;5030304;28;20469;-73
2023/03/11 03:42:38;;;;;;;;;;;;;;;-0.02;78.83;95421.88;5031254;28;19951;-73
2023/03/11 03:45:05;;;;;;;;;;;;;;;-0.10;80.02;95427.91;5030963;28;19974;-73
2023/03/11 03:47:32;;;;;;;;;;;;;;;-0.14;79.42;95428.44;5030949;28;19948;-73
2023/03/11 03:49:58;;;;;;;;;;;;;;;-0.17;79.05;95424.41;5031089;28;19957;-73
2023/03/11 03:52:23;;;;;;;;;;;;;;;-0.26;77.36;95410.00;5030699;28;19992;-73
2023/03/11 03:54:49;;;;;;;;;;;;;;;-0.28;78.25;95420.47;5031414;28;20408;-75
2023/03/11 03:57:15;;;;;;;;;;;;;;;-0.26;78.98;95434.00;5031293;28;19948;-73
2023/03/11 03:59:41;;;;;;;;;;;;;;;-0.21;79.86;95438.63;5030947;28;19966;-73
2023/03/11 04:02:07;;;;;;;;;;;;;;;-0.14;79.47;95436.16;5030603;28;19965;-73
2023/03/11 04:04:33;;;;;;;;;;;;;;;-0.12;80.75;95458.19;5030712;28;19955;-74
2023/03/11 04:06:59;;;;;;;;;;;;;;;-0.07;81.25;95452.50;5019538;28;20210;-73
2023/03/11 04:09:25;;;;;;;;;;;;;;;-0.06;81.07;95459.28;5030980;28;19950;-73
2023/03/11 04:11:51;;;;;;;;;;;;;;;-0.05;81.41;95464.22;5030770;28;20350;-73
2023/03/11 04:14:17;;;;;;;;;;;;;;;-0.04;80.32;95457.31;5030510;28;19951;-73
2023/03/11 04:16:43;;;;;;;;;;;;;;;-0.04;81.02;95477.94;5031004;28;19957;-73
2023/03/11 04:19:09;;;;;;;;;;;;;;;-0.07;79.52;95457.66;5030356;28;19957;-73
2023/03/11 04:21:35;;;;;;;;;;;;;;;-0.17;78.94;95447.59;5030601;28;19965;-73
2023/03/11 04:24:01;;;;;;;;;;;;;;;-0.22;80.60;95455.84;5030530;28;19958;-73
2023/03/11 04:26:27;;;;;;;;;;;;;;;-0.24;81.53;95470.69;5030997;28;20440;-73
2023/03/11 04:28:53;;;;;;;;;;;;;;;-0.23;81.08;95474.09;5030827;28;19958;-73
2023/03/11 04:31:19;;;;;;;;;;;;;;;-0.27;79.00;95439.34;5034025;28;19948;-73
2023/03/11 04:33:45;;;;;;;;;;;;;;;-0.35;78.99;95434.25;5016082;28;20465;-73
2023/03/11 04:36:11;;;;;;;;;;;;;;;-0.44;78.92;95426.59;5000568;28;19952;-73
2023/03/11 04:38:37;;;;;;;;;;;;;;;-0.52;79.15;95431.03;5033954;28;20321;-73
2023/03/11 04:41:04;;;;;;;;;;;;;;;-0.58;79.63;95439.44;5033745;28;19965;-73
2023/03/11 04:43:30;;;;;;;;;;;;;;;-0.64;80.10;95446.84;5015869;28;19973;-73
2023/03/11 04:45:56;;;;;;;;;;;;;;;-0.60;80.74;95449.09;5034140;28;19947;-73
2023/03/11 04:48:22;;;;;;;;;;;;;;;-0.59;81.33;95459.22;5033538;28;20482;-73
2023/03/11 04:50:47;;;;;;;;;;;;;;;-0.54;81.90;95481.91;5033395;28;19953;-73
2023/03/11 04:53:13;;;;;;;;;;;;;;;-0.49;81.98;95489.88;5016025;28;19996;-73
2023/03/11 04:55:40;;;;;;;;;;;;;;;-0.46;81.97;95490.34;5034113;28;19943;-73
2023/03/11 04:58:06;;;;;;;;;;;;;;;-0.44;81.32;95483.25;5033769;28;19969;-73
2023/03/11 05:00:31;;;;;;;;;;;;;;;-0.44;81.22;95479.88;5015709;28;19956;-73
2023/03/11 05:02:58;;;;;;;;;;;;;;;-0.44;82.03;95487.63;5033501;28;19957;-73
2023/03/11 05:05:23;;;;;;;;;;;;;;;-0.47;82.15;95488.75;5033286;28;19943;-73
2023/03/11 05:07:49;;;;;;;;;;;;;;;-0.51;82.54;95491.84;5033300;28;20338;-74
2023/03/11 05:10:21;;;;;;;;;;;;;;;-0.54;83.03;95505.06;5033227;28;19978;-72
2023/03/11 05:12:48;;;;;;;;;;;;;;;-0.56;82.95;95509.59;5033525;28;20388;-73
2023/03/11 05:15:13;;;;;;;;;;;;;;;-0.58;82.55;95511.53;5015551;28;20409;-73
2023/03/11 05:17:39;;;;;;;;;;;;;;;-0.61;82.38;95502.34;5033234;28;19960;-73
2023/03/11 05:20:06;;;;;;;;;;;;;;;-0.63;82.46;95504.31;5033148;28;19959;-73
2023/03/11 05:22:32;;;;;;;;;;;;;;;-0.63;82.93;95506.88;5033319;28;19959;-73
2023/03/11 05:24:58;;;;;;;;;;;;;;;-0.64;82.70;95510.44;5033152;28;19977;-73
2023/03/11 05:27:24;;;;;;;;;;;;;;;-0.64;83.05;95526.69;5033087;28;20423;-73
2023/03/11 05:29:50;;;;;;;;;;;;;;;-0.64;83.15;95529.25;5015275;28;20037;-73
2023/03/11 05:32:18;;;;;;;;;;;;;;;-0.64;83.03;95538.75;5015240;28;19954;-73
2023/03/11 05:34:44;;;;;;;;;;;;;;;-0.66;83.12;95526.03;5032358;28;19958;-73
2023/03/11 05:37:10;;;;;;;;;;;;;;;-0.67;83.24;95528.81;5032938;28;19953;-74
2023/03/11 05:39:36;;;;;;;;;;;;;;;-0.70;83.03;95524.78;5032291;28;19959;-73
2023/03/11 05:42:06;;;;;;;;;;;;;;;-0.71;83.25;95515.47;5032180;28;19967;-73
2023/03/11 05:44:32;;;;;;;;;;;;;;;-0.74;83.15;95509.84;5032368;28;19978;-73
2023/03/11 05:46:58;;;;;;;;;;;;;;;-0.75;83.18;95516.78;5032808;28;19951;-73
2023/03/11 05:49:24;;;;;;;;;;;;;;;-0.76;83.34;95514.38;5032826;28;19965;-73
2023/03/11 05:51:50;;;;;;;;;;;;;;;-0.78;83.42;95518.88;5032676;28;20345;-73
2023/03/11 05:54:16;;;;;;;;;;;;;;;-0.79;83.28;95525.81;5032816;28;19951;-73
2023/03/11 05:56:43;;;;;;;;;;;;;;;-0.78;82.97;95516.31;5032555;28;19951;-73
2023/03/11 05:59:09;;;;;;;;;;;;;;;-0.78;83.12;95526.59;5032635;28;19960;-73
2023/03/11 06:01:35;;;;;;;;;;;;;;;-0.77;82.69;95531.59;5032235;28;20453;-73
2023/03/11 06:04:01;;;;;;;;;;;;;;;-0.74;83.10;95535.59;5032597;28;19948;-73
2023/03/11 06:06:27;;;;;;;;;;;;;;;-0.73;83.13;95526.91;5032717;28;19949;-73
2023/03/11 06:08:53;;;;;;;;;;;;;;;-0.70;82.86;95527.34;5032236;28;19969;-73
2023/03/11 06:11:19;;;;;;;;;;;;;;;-0.65;82.81;95524.25;5032342;28;19991;-73
2023/03/11 06:13:45;;;;;;;;;;;;;;;-0.59;83.06;95527.94;5032210;28;20394;-74
2023/03/11 06:16:11;;;;;;;;;;;;;;;-0.55;83.00;95532.56;5032252;28;20041;-73
2023/03/11 06:18:36;;;;;;;;;;;;;;;-0.44;82.97;95539.13;5032093;28;20499;-73
2023/03/11 06:21:03;;;;;;;;;;;;;;;-0.29;82.87;95524.50;5032208;28;19967;-73
2023/03/11 06:23:29;;;;;;;;;;;;;;;-0.05;82.39;95526.09;5032316;28;19952;-74
2023/03/11 06:25:56;;;;;;;;;;;;;;;0.26;81.52;95521.81;5032208;28;19951;-73
2023/03/11 06:28:22;;;;;;;;;;;;;;;0.85;80.80;95511.47;5032135;28;19952;-73
2023/03/11 06:30:48;;;;;;;;;;;;;;;1.81;79.14;95499.16;5031924;28;20400;-72
2023/03/11 06:33:14;;;;;;;;;;;;;;;2.73;76.66;95460.31;5032429;28;20353;-73
2023/03/11 06:35:40;;;;;;;;;;;;;;;3.36;74.05;95432.41;5031856;28;19943;-73
2023/03/11 06:38:05;;;;;;;;;;;;;;;4.02;72.27;95431.63;5032019;28;19960;-73
2023/03/11 06:40:32;;;;;;;;;;;;;;;4.69;69.59;95405.50;5031924;28;20425;-73
2023/03/11 06:42:58;;;;;;;;;;;;;;;5.23;67.81;95398.22;5014133;28;19965;-73
2023/03/11 06:45:24;;;;;;;;;;;;;;;5.44;67.68;95402.28;5032181;28;20390;-74
2023/03/11 06:47:50;;;;;;;;;;;;;;;5.32;65.59;95396.16;5031536;28;19947;-73
2023/03/11 06:50:16;;;;;;;;;;;;;;;5.49;65.61;95405.03;5031953;28;20049;-74
2023/03/11 06:52:42;;;;;;;;;;;;;;;5.46;64.42;95427.06;5030932;28;19967;-73
2023/03/11 06:55:08;;;;;;;;;;;;;;;4.95;63.79;95427.94;5031695;28;19957;-73
2023/03/11 06:57:34;;;;;;;;;;;;;;;4.35;65.49;95450.75;5031731;28;19947;-74
2023/03/11 06:59:59;;;;;;;;;;;;;;;3.76;65.56;95448.00;5031603;28;20317;-73
2023/03/11 07:02:25;;;;;;;;;;;;;;;3.31;66.69;95463.28;5031417;28;19966;-74
2023/03/11 07:04:51;;;;;;;;;;;;;;;2.90;67.49;95473.72;5014010;28;20362;-73
2023/03/11 07:07:17;;;;;;;;;;;;;;;2.54;68.56;95490.28;5031437;28;20067;-73
2023/03/11 07:09:43;;;;;;;;;;;;;;;2.32;68.75;95495.53;5031324;28;20012;-73
2023/03/11 07:12:09;;;;;;;;;;;;;;;2.11;69.69;95521.47;5031513;28;19952;-74
2023/03/11 07:14:34;;;;;;;;;;;;;;;1.97;70.80;95543.81;5031386;28;20003;-73
2023/03/11 07:17:00;;;;;;;;;;;;;;;1.76;72.07;95553.19;5031213;28;19950;-73
2023/03/11 07:19:26;;;;;;;;;;;;;;;1.67;70.98;95549.13;5031817;28;19951;-73
2023/03/11 07:21:52;;;;;;;;;;;;;;;1.71;71.97;95565.06;4997357;28;20006;-73
2023/03/11 07:24:18;;;;;;;;;;;;;;;1.77;70.74;95552.22;5031290;28;20038;-73
2023/03/11 07:26:44;;;;;;;;;;;;;;;1.92;72.09;95556.50;5031235;28;19947;-74
2023/03/11 07:29:10;;;;;;;;;;;;;;;2.03;70.52;95556.00;5031082;28;19951;-74
2023/03/11 07:31:37;;;;;;;;;;;;;;;2.06;71.16;95555.66;5031209;28;19944;-74
2023/03/11 07:34:04;;;;;;;;;;;;;;;2.12;71.83;95570.44;5030981;28;20424;-73
2023/03/11 07:36:31;;;;;;;;;;;;;;;2.21;72.41;95577.06;5031190;28;20430;-73
2023/03/11 07:38:58;;;;;;;;;;;;;;;2.21;70.62;95552.97;5013330;28;19952;-73
2023/03/11 07:41:25;;;;;;;;;;;;;;;2.15;69.85;95533.03;5030855;28;19969;-74
2023/03/11 07:43:55;;;;;;;;;;;;;;;2.50;69.68;95540.81;5031208;28;20357;-73
2023/03/11 07:46:22;;;;;;;;;;;;;;;3.11;69.79;95540.16;5030833;28;19960;-74
2023/03/11 07:48:48;;;;;;;;;;;;;;;3.66;67.85;95527.97;5030986;28;19955;-73
2023/03/11 07:51:19;;;;;;;;;;;;;;;3.99;65.88;95506.44;5030944;28;20331;-73
2023/03/11 07:53:45;;;;;;;;;;;;;;;4.01;64.47;95502.66;5013263;28;20322;-74
2023/03/11 07:56:12;;;;;;;;;;;;;;;4.16;67.16;95546.56;5030853;28;19956;-74
2023/03/11 07:58:38;;;;;;;;;;;;;;;4.35;62.63;95508.63;5030880;28;19946;-74
2023/03/11 08:01:05;;;;;;;;;;;;;;;4.77;61.82;95503.97;5030879;28;19954;-73
2023/03/11 08:03:32;;;;;;;;;;;;;;;5.13;61.69;95583.19;5030423;28;19956;-73
2023/03/11 08:05:58;;;;;;;;;;;;;;;5.41;63.55;95619.28;5030363;28;19952;-74
2023/03/11 08:08:23;;;;;;;;;;;;;;;5.66;58.98;95621.19;5030652;28;20414;-74
2023/03/11 08:10:49;;;;;;;;;;;;;;;5.98;61.14;95616.84;5030639;28;19941;-73
2023/03/11 08:13:16;;;;;;;;;;;;;;;6.18;60.21;95618.56;5030695;28;19945;-74
2023/03/11 08:15:42;;;;;;;;;;;;;;;6.07;59.97;95628.63;5013031;28;19955;-74
2023/03/11 08:18:08;;;;;;;;;;;;;;;5.97;59.81;95627.50;5030354;28;19953;-73
2023/03/11 08:20:35;;;;;;;;;;;;;;;5.53;62.07;95655.84;5030879;28;20416;-73
2023/03/11 08:23:01;;;;;;;;;;;;;;;5.12;59.38;95646.56;5030496;28;19954;-73
2023/03/11 08:25:27;;;;;;;;;;;;;;;5.10;60.69;95661.53;5030736;28;19949;-73
2023/03/11 08:27:53;;;;;;;;;;;;;;;5.29;57.34;95637.34;5012660;28;19949;-73
2023/03/11 08:30:19;;;;;;;;;;;;;;;5.54;61.90;95660.03;5013101;28;19950;-73
2023/03/11 08:32:45;;;;;;;;;;;;;;;5.85;62.29;95661.13;5030608;28;19972;-73
2023/03/11 08:35:11;;;;;;;;;;;;;;;6.01;54.79;95633.88;5012889;28;20424;-73
2023/03/11 08:37:37;;;;;;;;;;;;;;;6.20;57.13;95653.78;5030399;28;19948;-73
2023/03/11 08:40:03;;;;;;;;;;;;;;;6.32;59.39;95681.75;5030170;28;19958;-74
2023/03/11 08:42:29;;;;;;;;;;;;;;;6.48;55.04;95666.41;5030245;28;19967;-73
2023/03/11 08:44:55;;;;;;;;;;;;;;;6.53;60.86;95691.03;5030544;28;19980;-73
2023/03/11 08:47:21;;;;;;;;;;;;;;;6.44;57.06;95672.25;5030280;28;20023;-73
2023/03/11 08:49:46;;;;;;;;;;;;;;;6.35;53.67;95663.09;5030136;28;19996;-73
2023/03/11 08:52:12;;;;;;;;;;;;;;;6.50;57.81;95680.00;5030167;28;19999;-73
2023/03/11 08:54:38;;;;;;;;;;;;;;;6.69;55.19;95667.84;5030134;28;19954;-74
2023/03/11 08:57:04;;;;;;;;;;;;;;;6.78;54.01;95660.56;5029215;28;19962;-73
2023/03/11 08:59:31;;;;;;;;;;;;;;;6.44;58.98;95675.66;5030225;28;19947;-73
2023/03/11 09:01:56;;;;;;;;;;;;;;;5.99;53.13;95652.28;5029997;28;19967;-73
2023/03/11 09:04:22;;;;;;;;;;;;;;;5.49;56.55;95668.47;5029984;28;19956;-73
2023/03/11 09:06:48;;;;;;;;;;;;;;;5.44;57.81;95681.28;5029297;28;20005;-74
2023/03/11 09:09:20;;;;;;;;;;;;;;;5.56;55.97;95678.06;5030020;28;19962;-73
2023/03/11 09:11:47;;;;;;;;;;;;;;;5.83;58.30;95692.56;5030197;28;20302;-74
2023/03/11 09:14:13;;;;;;;;;;;;;;;5.95;57.28;95691.97;5030068;28;19958;-73
2023/03/11 09:16:39;;;;;;;;;;;;;;;5.75;57.89;95689.38;5031466;28;19955;-73
2023/03/11 09:19:06;;;;;;;;;;;;;;;5.41;60.00;95709.50;5033211;28;19944;-73
2023/03/11 09:21:32;;;;;;;;;;;;;;;5.26;59.81;95700.13;5083743;28;20410;-74
2023/03/11 09:23:58;;;;;;;;;;;;;;;5.43;60.30;95712.69;5033239;28;19944;-73
2023/03/11 09:26:24;;;;;;;;;;;;;;;5.74;58.91;95701.59;5033323;28;19951;-73
2023/03/11 09:28:50;;;;;;;;;;;;;;;5.89;61.47;95709.16;5033296;28;19944;-73
2023/03/11 09:31:17;;;;;;;;;;;;;;;5.78;53.08;95678.59;5032862;28;19948;-74
2023/03/11 09:33:44;;;;;;;;;;;;;;;5.64;56.98;95690.81;5032837;28;21309;-74
2023/03/11 09:36:11;;;;;;;;;;;;;;;5.26;57.40;95697.50;5033331;28;19953;-74
2023/03/11 09:38:37;;;;;;;;;;;;;;;4.89;56.26;95691.16;5032906;28;19955;-73
2023/03/11 09:41:15;;;;;;;;;;;;;;;4.68;57.83;95694.75;5033155;28;19947;-73
2023/03/11 09:43:50;;;;;;;;;;;;;;;4.59;60.72;95717.50;5032536;28;19984;-74
2023/03/11 09:46:35;;;;;;;;;;;;;;;4.48;61.77;95724.09;5032779;28;19955;-74
2023/03/11 09:49:04;;;;;;;;;;;;;;;4.51;62.96;95738.47;5032776;28;20390;-73
2023/03/11 09:51:31;;;;;;;;;;;;;;;4.38;59.07;95708.09;5032857;28;19944;-74
2023/03/11 09:54:08;;;;;;;;;;;;;;;4.24;57.41;95709.06;5015123;28;19994;-73
2023/03/11 09:56:35;;;;;;;;;;;;;;;4.15;60.82;95721.41;5032638;28;19947;-73
2023/03/11 09:59:03;;;;;;;;;;;;;;;4.11;58.51;95711.63;5032409;28;19956;-74
2023/03/11 10:01:33;;;;;;;;;;;;;;;4.05;60.46;95720.97;5025281;28;19956;-73
2023/03/11 10:04:04;;;;;;;;;;;;;;;4.04;54.94;95689.03;5014719;28;19942;-73
2023/03/11 10:06:30;;;;;;;;;;;;;;;4.03;59.62;95718.59;5032617;28;19952;-73
2023/03/11 10:09:04;;;;;;;;;;;;;;;4.20;59.71;95719.03;5032522;28;19955;-73
2023/03/11 10:11:47;;;;;;;;;;;;;;;4.29;59.48;95719.66;5032522;28;19944;-73
2023/03/11 10:14:31;;;;;;;;;;;;;;;4.34;58.13;95700.91;5024327;28;19950;-73
2023/03/11 10:17:10;;;;;;;;;;;;;;;4.40;58.53;95711.28;5032379;28;20448;-74
2023/03/11 10:19:39;;;;;;;;;;;;;;;4.50;58.33;95713.50;5031319;28;19951;-74
2023/03/11 10:22:05;;;;;;;;;;;;;;;4.56;56.28;95704.94;5032193;28;19967;-73
2023/03/11 10:24:49;;;;;;;;;;;;;;;4.71;58.45;95714.34;5032385;28;20415;-74
2023/03/11 10:27:19;;;;;;;;;;;;;;;4.80;55.63;95711.34;5032064;28;19947;-74
2023/03/11 10:29:49;;;;;;;;;;;;;;;5.00;59.29;95718.34;5019057;28;20304;-73
2023/03/11 10:32:15;;;;;;;;;;;;;;;5.37;55.67;95703.09;5032127;28;19948;-73
2023/03/11 10:34:47;;;;;;;;;;;;;;;5.54;51.95;95680.84;5031922;28;20393;-73
2023/03/11 10:37:17;;;;;;;;;;;;;;;5.42;56.50;95703.31;5031853;28;20403;-73
2023/03/11 10:39:45;;;;;;;;;;;;;;;5.35;54.76;95689.50;5032113;28;20318;-73
2023/03/11 10:42:13;;;;;;;;;;;;;;;5.16;54.48;95691.13;5031322;28;20330;-74
2023/03/11 10:44:39;;;;;;;;;;;;;;;5.06;55.11;95697.56;5032198;28;19973;-73
2023/03/11 10:47:06;;;;;;;;;;;;;;;5.01;55.36;95692.16;5031544;28;19958;-74
2023/03/11 10:49:32;;;;;;;;;;;;;;;5.05;54.14;95690.75;5031954;28;19976;-73
2023/03/11 10:51:58;;;;;;;;;;;;;;;4.90;54.72;95686.78;5031577;28;19940;-73
2023/03/11 10:54:28;;;;;;;;;;;;;;;4.92;55.04;95697.75;5031590;28;20001;-73
2023/03/11 10:57:02;;;;;;;;;;;;;;;4.90;54.87;95694.56;5031556;28;19953;-73
2023/03/11 10:59:46;;;;;;;;;;;;;;;4.80;54.67;95700.94;5031645;28;19948;-73
2023/03/11 11:02:18;;;;;;;;;;;;;;;4.76;54.58;95704.16;5023392;28;19965;-73
2023/03/11 11:04:44;;;;;;;;;;;;;;;4.71;53.70;95699.56;5031329;28;19968;-73
2023/03/11 11:07:28;;;;;;;;;;;;;;;4.65;55.79;95711.53;5031578;28;20346;-73
2023/03/11 11:10:12;;;;;;;;;;;;;;;4.62;56.84;95716.31;5031704;28;19943;-73
2023/03/11 11:12:50;;;;;;;;;;;;;;;4.56;55.96;95714.53;5031265;28;19952;-73
2023/03/11 11:15:20;;;;;;;;;;;;;;;4.61;58.08;95719.91;5031710;28;19950;-73
2023/03/11 11:17:46;;;;;;;;;;;;;;;5.13;54.41;95707.16;5031525;28;19953;-73
2023/03/11 11:20:16;;;;;;;;;;;;;;;5.70;57.88;95713.41;5031409;28;19960;-73
2023/03/11 11:22:47;;;;;;;;;;;;;;;6.21;54.56;95704.81;5031218;28;19966;-73
2023/03/11 11:25:23;;;;;;;;;;;;;;;6.62;53.92;95693.16;5031501;28;19956;-73
2023/03/11 11:27:54;;;;;;;;;;;;;;;6.90;51.36;95686.75;5031218;28;19947;-73
2023/03/11 11:30:20;;;;;;;;;;;;;;;7.13;49.30;95690.56;5031288;28;19948;-73
2023/03/11 11:32:46;;;;;;;;;;;;;;;7.09;47.77;95690.19;5031260;28;19966;-74
2023/03/11 11:35:13;;;;;;;;;;;;;;;6.89;48.11;95708.63;5031131;28;19955;-74
2023/03/11 11:37:45;;;;;;;;;;;;;;;6.61;50.41;95711.63;5031783;28;19952;-74
2023/03/11 11:40:14;;;;;;;;;;;;;;;6.62;50.29;95714.00;5030516;28;19947;-73
2023/03/11 11:42:43;;;;;;;;;;;;;;;6.86;52.06;95709.81;5030906;28;19968;-74
2023/03/11 11:45:18;;;;;;;;;;;;;;;7.10;50.30;95703.03;5030662;28;19975;-74
2023/03/11 11:47:47;;;;;;;;;;;;;;;7.29;46.64;95690.81;5030879;28;19942;-73
2023/03/11 11:50:33;;;;;;;;;;;;;;;7.22;44.82;95686.66;5030838;28;19958;-73
2023/03/11 11:53:14;;;;;;;;;;;;;;;6.99;47.11;95702.91;5033880;28;19944;-75
2023/03/11 11:55:51;;;;;;;;;;;;;;;6.97;49.01;95700.53;5030941;28;19955;-74
2023/03/11 11:58:17;;;;;;;;;;;;;;;6.87;47.12;95695.78;5013132;28;19948;-74
2023/03/11 12:01:02;;;;;;;;;;;;;;;6.91;49.48;95699.56;5030752;28;20411;-74
2023/03/11 12:03:31;;;;;;;;;;;;;;;6.82;46.69;95694.81;5030679;28;19969;-74
2023/03/11 12:05:59;;;;;;;;;;;;;;;6.86;49.21;95704.59;5030828;28;19948;-73
2023/03/11 12:08:45;;;;;;;;;;;;;;;6.81;49.79;95704.47;5030832;28;19951;-74
2023/03/11 12:11:15;;;;;;;;;;;;;;;6.57;46.30;95693.00;5012940;28;19942;-73
2023/03/11 12:13:44;;;;;;;;;;;;;;;6.25;47.46;95697.41;5031071;28;20320;-73
2023/03/11 12:16:10;;;;;;;;;;;;;;;6.01;48.40;95688.53;5030564;28;19951;-73
2023/03/11 12:19:00;;;;;;;;;;;;;;;6.15;50.61;95691.84;5030391;28;19939;-74
2023/03/11 12:21:53;;;;;;;;;;;;;;;6.44;48.07;95680.06;5033016;28;19944;-73
2023/03/11 12:24:25;;;;;;;;;;;;;;;6.67;49.86;95682.91;5016253;28;19951;-73
2023/03/11 12:26:52;;;;;;;;;;;;;;;6.67;47.20;95671.69;5030332;28;20333;-74
2023/03/11 12:29:32;;;;;;;;;;;;;;;6.63;45.51;95665.31;5030532;28;19952;-74
2023/03/11 12:31:59;;;;;;;;;;;;;;;6.28;48.12;95673.56;5030975;28;19949;-73
2023/03/11 12:34:26;;;;;;;;;;;;;;;6.23;47.19;95668.97;5030376;28;19976;-73
2023/03/11 12:36:54;;;;;;;;;;;;;;;6.23;46.61;95666.38;5030520;28;19955;-73
2023/03/11 12:39:23;;;;;;;;;;;;;;;6.20;48.04;95674.59;5012683;28;19950;-74
2023/03/11 12:42:08;;;;;;;;;;;;;;;6.16;50.23;95675.25;5030577;28;20392;-73
2023/03/11 12:44:34;;;;;;;;;;;;;;;6.26;47.71;95673.78;5016862;28;19968;-73
2023/03/11 12:47:20;;;;;;;;;;;;;;;6.38;49.45;95676.47;5012542;28;19994;-74
2023/03/11 12:49:54;;;;;;;;;;;;;;;6.68;44.58;95661.06;5030059;28;19947;-74
2023/03/11 12:52:21;;;;;;;;;;;;;;;6.94;46.17;95655.84;5034291;28;19950;-73
2023/03/11 12:54:48;;;;;;;;;;;;;;;7.09;47.83;95649.28;5033647;28;19951;-74
2023/03/11 12:57:14;;;;;;;;;;;;;;;7.33;46.95;95646.84;5033552;28;19956;-73
2023/03/11 12:59:46;;;;;;;;;;;;;;;7.59;46.37;95648.38;5033757;28;20060;-74